Time;durP1;ratioP1;P1;durP2;ratioP2;P2;SDS_P1;SDS_P2;PMS_P1;PMS_P2;Temp;Humidity;BMP_temperature;BMP_pressure;BME280_temperature;BME280_humidity;BME280_pressure;Samples;Min_cycle;Max_cycle;Signal;HPM_P1;HPM_P2
2022/11/01 00:02:07;;;;;;;28.65;12.25;;;12.90;48.70;;;;;;4977276;28;20382;-80
2022/11/01 00:04:33;;;;;;;22.85;11.32;;;12.90;39.70;;;;;;4977301;28;20030;-80
2022/11/01 00:06:58;;;;;;;25.27;10.98;;;12.90;32.00;;;;;;4977269;28;20053;-80
2022/11/01 00:09:24;;;;;;;23.38;12.48;;;12.80;26.40;;;;;;4977101;28;20023;-80
2022/11/01 00:11:49;;;;;;;25.27;11.77;;;13.10;16.90;;;;;;4977410;28;20026;-79
2022/11/01 00:14:17;;;;;;;23.30;11.13;;;13.10;23.80;;;;;;4977127;28;20023;-80
2022/11/01 00:16:43;;;;;;;20.98;10.25;;;12.90;19.30;;;;;;4977124;28;20453;-79
2022/11/01 00:19:09;;;;;;;17.38;9.98;;;13.00;12.00;;;;;;4977032;28;20038;-80
2022/11/01 00:21:35;;;;;;;21.92;10.25;;;13.00;6.50;;;;;;4977019;28;20073;-79
2022/11/01 00:24:01;;;;;;;20.10;10.43;;;13.10;1.00;;;;;;4976938;28;20027;-79
2022/11/01 00:26:26;;;;;;;18.58;9.70;;;13.10;1.00;;;;;;4976800;28;20105;-80
2022/11/01 00:28:52;;;;;;;16.25;10.05;;;13.10;1.00;;;;;;4976809;28;20462;-79
2022/11/01 00:31:20;;;;;;;17.67;9.05;;;13.20;1.00;;;;;;4976849;28;20047;-80
2022/11/01 00:33:46;;;;;;;18.75;10.13;;;13.40;1.00;;;;;;4976685;28;20142;-80
2022/11/01 00:36:11;;;;;;;17.38;9.48;;;13.30;1.00;;;;;;4972972;28;20102;-80
2022/11/01 00:38:37;;;;;;;18.98;9.60;;;13.30;1.00;;;;;;4957586;28;20364;-80
2022/11/01 00:41:03;;;;;;;17.27;9.70;;;13.30;1.00;;;;;;4957357;28;20051;-80
2022/11/01 00:43:34;;;;;;;14.85;8.65;;;13.40;1.00;;;;;;4957232;28;20039;-80
2022/11/01 00:46:00;;;;;;;18.55;9.18;;;13.40;1.00;;;;;;4957203;28;20034;-80
2022/11/01 00:48:26;;;;;;;19.38;9.00;;;13.40;1.00;;;;;;4957376;28;20035;-80
2022/11/01 00:50:51;;;;;;;17.67;9.82;;;13.40;1.00;;;;;;4957067;28;20024;-80
2022/11/01 00:53:17;;;;;;;17.48;9.57;;;13.30;1.00;;;;;;4957653;28;20023;-80
2022/11/01 00:55:43;;;;;;;17.17;8.70;;;13.50;1.00;;;;;;4957069;28;20363;-80
2022/11/01 00:58:08;;;;;;;19.08;9.15;;;13.50;1.00;;;;;;4956922;28;20082;-79
2022/11/01 01:00:35;;;;;;;18.80;8.73;;;13.50;1.00;;;;;;4956951;28;20031;-80
2022/11/01 01:03:01;;;;;;;19.35;9.82;;;13.40;1.00;;;;;;4956905;28;20102;-79
2022/11/01 01:05:27;;;;;;;19.75;8.85;;;13.40;1.00;;;;;;4956845;28;20041;-79
2022/11/01 01:07:53;;;;;;;21.63;9.25;;;13.40;1.00;;;;;;4956762;28;20398;-79
2022/11/01 01:10:18;;;;;;;17.30;8.40;;;13.40;1.00;;;;;;4965321;28;20098;-79
2022/11/01 01:12:44;;;;;;;14.43;8.43;;;13.40;1.00;;;;;;4995634;28;20030;-81
2022/11/01 01:15:09;;;;;;;16.25;8.40;;;13.30;12.90;;;;;;4978097;28;20094;-80
2022/11/01 01:17:35;;;;;;;13.10;6.78;;;13.60;1.70;;;;;;4976605;28;20058;-80
2022/11/01 01:20:01;;;;;;;13.18;7.78;;;13.40;10.20;;;;;;4975887;28;20429;-80
2022/11/01 01:22:27;;;;;;;14.63;7.47;;;13.40;6.90;;;;;;4975854;28;20034;-80
2022/11/01 01:24:53;;;;;;;16.38;8.02;;;13.40;9.10;;;;;;4975776;28;20085;-80
2022/11/01 01:27:18;;;;;;;14.55;7.75;;;13.40;12.00;;;;;;4986209;28;20030;-80
2022/11/01 01:29:44;;;;;;;14.23;8.27;;;13.50;6.60;;;;;;4995163;28;20072;-81
2022/11/01 01:32:18;;;;;;;13.80;8.00;;;13.60;1.00;;;;;;4994797;28;20026;-81
2022/11/01 01:34:43;;;;;;;13.63;8.10;;;13.50;1.00;;;;;;4994896;28;20157;-81
2022/11/01 01:37:10;;;;;;;12.10;7.75;;;13.50;1.00;;;;;;4995039;28;20078;-81
2022/11/01 01:39:36;;;;;;;19.00;7.88;;;13.50;1.00;;;;;;4995195;28;20027;-80
2022/11/01 01:42:13;;;;;;;14.15;7.78;;;13.50;1.00;;;;;;4995347;28;20532;-80
2022/11/01 01:44:50;;;;;;;14.10;7.97;;;13.60;1.00;;;;;;4995411;28;20022;-80
2022/11/01 01:47:26;;;;;;;12.10;7.00;;;13.50;1.00;;;;;;4994849;28;20496;-80
2022/11/01 01:50:24;;;;;;;14.68;7.28;;;13.50;1.00;;;;;;4994322;28;20434;-81
2022/11/01 01:52:58;;;;;;;14.88;7.15;;;13.60;1.00;;;;;;4995585;28;20054;-81
2022/11/01 01:55:36;;;;;;;15.43;7.10;;;13.60;1.00;;;;;;4980663;28;20026;-80
2022/11/01 01:58:03;;;;;;;12.50;7.20;;;13.60;1.00;;;;;;4975663;28;20022;-80
2022/11/01 02:00:29;;;;;;;13.25;7.88;;;13.60;1.00;;;;;;4975204;28;20038;-80
2022/11/01 02:02:54;;;;;;;14.98;7.07;;;13.60;1.00;;;;;;4975081;28;20023;-81
2022/11/01 02:05:35;;;;;;;14.10;7.53;;;13.70;1.00;;;;;;4975017;28;20027;-81
2022/11/01 02:08:01;;;;;;;15.05;7.28;;;13.60;1.00;;;;;;4975035;28;20031;-80
2022/11/01 02:10:28;;;;;;;14.38;7.47;;;13.70;1.00;;;;;;4975397;28;20026;-80
2022/11/01 02:12:56;;;;;;;12.65;6.78;;;13.70;1.00;;;;;;4975550;28;20036;-80
2022/11/01 02:15:31;;;;;;;16.88;8.18;;;13.80;1.00;;;;;;4974975;28;20025;-81
2022/11/01 02:18:01;;;;;;;16.65;7.03;;;13.80;1.00;;;;;;4975006;28;20023;-81
2022/11/01 02:21:11;;;;;;;13.98;6.82;;;13.70;99.90;;;;;;4974996;28;20031;-82
2022/11/01 02:24:00;;;;;;;15.23;7.15;;;13.60;99.90;;;;;;4956252;28;20046;-82
2022/11/01 02:26:44;;;;;;;11.93;6.70;;;13.60;99.90;;;;;;4973576;28;20041;-81
2022/11/01 02:29:37;;;;;;;12.35;6.93;;;13.60;99.90;;;;;;4962673;28;20028;-82
2022/11/01 02:32:51;;;;;;;10.77;7.05;;;13.60;99.90;;;;;;4955311;28;20355;-81
2022/11/01 02:35:23;;;;;;;13.77;7.78;;;13.60;99.90;;;;;;4948285;29;20829;-82
2022/11/01 02:38:29;;;;;;;15.27;7.68;;;13.60;99.90;;;;;;4955621;29;20409;-82
2022/11/01 02:41:02;;;;;;;12.40;7.00;;;13.60;99.90;;;;;;4955767;28;20034;-81
2022/11/01 02:43:50;;;;;;;13.60;6.47;;;13.60;99.90;;;;;;4955829;29;20049;-81
2022/11/01 02:49:02;;;;;;;12.10;6.75;;;13.60;99.90;;;;;;4955388;29;20046;-81
2022/11/01 02:51:29;;;;;;;12.48;6.70;;;13.60;99.90;;;;;;4955346;28;20026;-82
2022/11/01 02:53:59;;;;;;;15.63;6.85;;;13.50;99.90;;;;;;4955636;28;20972;-81
2022/11/01 02:56:24;;;;;;;15.03;7.10;;;13.60;99.90;;;;;;4955723;29;20059;-81
2022/11/01 02:58:51;;;;;;;12.60;6.63;;;13.70;99.90;;;;;;4953974;29;20047;-81
2022/11/01 03:01:22;;;;;;;16.73;7.18;;;13.60;99.90;;;;;;4959028;28;20030;-81
2022/11/01 03:03:49;;;;;;;10.52;7.05;;;13.60;99.90;;;;;;4959114;28;20110;-81
2022/11/01 03:06:29;;;;;;;12.68;6.72;;;13.60;99.90;;;;;;4959391;28;20042;-81
2022/11/01 03:09:02;;;;;;;13.25;6.75;;;13.60;99.90;;;;;;4959088;28;20118;-81
2022/11/01 03:11:40;;;;;;;12.52;5.97;;;13.50;99.90;;;;;;4959149;29;20023;-81
2022/11/01 03:14:13;;;;;;;13.68;6.55;;;13.40;99.90;;;;;;4959031;28;20024;-81
2022/11/01 03:17:08;;;;;;;14.27;6.32;;;13.40;99.90;;;;;;4959119;29;20534;-81
2022/11/01 03:19:55;;;;;;;13.07;6.85;;;13.40;99.90;;;;;;4959276;28;20035;-81
2022/11/01 03:22:33;;;;;;;12.85;6.68;;;13.40;99.90;;;;;;4958717;29;20035;-81
2022/11/01 03:27:59;;;;;;;13.07;6.78;;;13.50;99.90;;;;;;4958756;29;20651;-81
2022/11/01 03:30:28;;;;;;;13.20;6.78;;;13.70;99.90;;;;;;4959207;29;20106;-81
2022/11/01 03:32:56;;;;;;;12.82;7.30;;;13.70;99.90;;;;;;4961171;28;20050;-82
2022/11/01 03:35:29;;;;;;;12.55;6.55;;;13.70;99.90;;;;;;4977865;28;20041;-82
2022/11/01 03:38:00;;;;;;;13.15;5.85;;;13.90;99.90;;;;;;4976654;28;20019;-82
2022/11/01 03:40:28;;;;;;;9.48;5.82;;;13.90;99.90;;;;;;4977792;28;20018;-81
2022/11/01 03:42:59;;;;;;;12.75;6.32;;;14.00;99.90;;;;;;4976521;28;20390;-81
2022/11/01 03:45:27;;;;;;;10.95;6.45;;;14.10;99.90;;;;;;4977667;28;20026;-81
2022/11/01 03:47:52;;;;;;;13.13;5.95;;;14.10;99.90;;;;;;4977703;28;20449;-81
2022/11/01 03:50:24;;;;;;;14.70;6.13;;;14.30;93.20;;;;;;4976393;28;20477;-81
2022/11/01 03:52:50;;;;;;;13.18;6.18;;;14.30;93.50;;;;;;4977508;28;20031;-81
2022/11/01 03:55:17;;;;;;;10.98;6.35;;;14.40;99.90;;;;;;4961439;28;20023;-81
2022/11/01 03:58:03;;;;;;;11.15;5.45;;;14.30;99.90;;;;;;4958106;28;20031;-81
2022/11/01 04:00:31;;;;;;;14.07;5.85;;;14.30;99.90;;;;;;4958004;28;20375;-81
2022/11/01 04:02:58;;;;;;;10.18;5.38;;;14.50;98.80;;;;;;4958092;28;20053;-82
2022/11/01 04:05:26;;;;;;;9.77;5.53;;;14.50;90.80;;;;;;4958324;28;20414;-81
2022/11/01 04:07:52;;;;;;;12.07;5.88;;;14.50;79.80;;;;;;4957755;28;20031;-81
2022/11/01 04:10:18;;;;;;;8.65;4.82;;;14.40;71.80;;;;;;4956719;28;20437;-81
2022/11/01 04:12:46;;;;;;;9.30;5.57;;;14.60;54.10;;;;;;4955934;28;20019;-81
2022/11/01 04:21:10;;;;;;;12.45;4.43;;;14.40;49.00;;;;;;4958458;29;20086;-80
2022/11/01 04:23:36;;;;;;;10.13;5.03;;;14.20;62.30;;;;;;4958471;28;20020;-80
2022/11/01 04:26:03;;;;;;;8.63;4.47;;;14.10;66.10;;;;;;4957616;28;20030;-80
2022/11/01 04:28:29;;;;;;;8.32;4.50;;;14.00;82.20;;;;;;4957769;28;20427;-81
2022/11/01 04:30:55;;;;;;;8.77;4.38;;;14.00;92.10;;;;;;4957536;28;20505;-81
2022/11/01 04:33:20;;;;;;;9.15;4.72;;;14.10;84.10;;;;;;4966948;28;20595;-81
2022/11/01 04:35:46;;;;;;;8.23;4.20;;;14.20;72.70;;;;;;4961235;28;20031;-81
2022/11/01 04:38:12;;;;;;;6.53;4.45;;;14.10;55.80;;;;;;4956138;28;20031;-81
2022/11/01 04:40:39;;;;;;;6.53;4.00;;;14.30;53.50;;;;;;4957483;28;20030;-81
2022/11/01 04:43:04;;;;;;;8.07;4.05;;;14.00;54.30;;;;;;4957720;28;20474;-81
2022/11/01 04:45:30;;;;;;;7.35;3.70;;;13.90;51.20;;;;;;4956180;28;20066;-81
2022/11/01 04:48:06;;;;;;;5.68;3.50;;;13.80;66.70;;;;;;4957064;28;20035;-81
2022/11/01 04:50:34;;;;;;;4.43;3.05;;;13.70;42.60;;;;;;4961228;28;20029;-81
2022/11/01 04:53:00;;;;;;;7.75;3.25;;;13.80;40.10;;;;;;4977182;28;20073;-81
2022/11/01 04:55:26;;;;;;;6.25;3.28;;;13.50;45.80;;;;;;4976381;28;20030;-81
2022/11/01 04:57:52;;;;;;;4.60;2.83;;;13.50;66.00;;;;;;4976743;28;20043;-81
2022/11/01 05:00:17;;;;;;;6.47;2.60;;;13.20;70.00;;;;;;4975122;28;20023;-81
2022/11/01 05:02:43;;;;;;;4.68;2.50;;;13.20;75.10;;;;;;4976324;28;20520;-81
2022/11/01 05:05:10;;;;;;;10.23;1.90;;;13.20;56.00;;;;;;4976620;28;20019;-80
2022/11/01 05:07:36;;;;;;;4.50;1.65;;;13.10;24.10;;;;;;4976681;28;20480;-81
2022/11/01 05:10:03;;;;;;;6.18;1.90;;;13.00;15.90;;;;;;4976247;28;20033;-81
2022/11/01 05:12:29;;;;;;;5.72;1.80;;;12.90;13.80;;;;;;4976820;28;20425;-81
2022/11/01 05:14:55;;;;;;;5.10;1.75;;;12.80;21.50;;;;;;4976084;28;20713;-81
2022/11/01 05:17:21;;;;;;;3.97;1.30;;;12.80;27.90;;;;;;4975905;28;20058;-81
2022/11/01 05:19:47;;;;;;;3.15;1.33;;;12.70;15.10;;;;;;4976203;28;20042;-81
2022/11/01 05:22:13;;;;;;;4.45;1.02;;;12.60;1.00;;;;;;4974438;28;20061;-81
2022/11/01 05:24:39;;;;;;;6.22;1.10;;;12.60;1.00;;;;;;4975128;28;20019;-81
2022/11/01 05:27:04;;;;;;;5.13;1.08;;;12.50;1.00;;;;;;4975953;28;20183;-81
2022/11/01 05:29:30;;;;;;;5.07;1.15;;;12.30;1.00;;;;;;4975844;28;20033;-80
2022/11/01 05:31:55;;;;;;;4.88;0.98;;;12.30;1.00;;;;;;4974335;28;20484;-81
2022/11/01 05:34:21;;;;;;;3.67;0.90;;;12.20;1.10;;;;;;4975657;28;20410;-81
2022/11/01 05:36:47;;;;;;;3.60;0.98;;;12.30;1.00;;;;;;4975668;28;20076;-81
2022/11/01 05:39:12;;;;;;;1.83;0.77;;;12.30;1.00;;;;;;4959624;28;20042;-81
2022/11/01 05:41:39;;;;;;;4.10;1.35;;;12.50;1.00;;;;;;4955171;28;20020;-80
2022/11/01 05:44:05;;;;;;;5.60;0.73;;;12.40;1.00;;;;;;4962844;28;20091;-80
2022/11/01 05:46:30;;;;;;;4.20;0.80;;;12.30;1.00;;;;;;4973140;28;20433;-80
2022/11/01 05:48:56;;;;;;;6.20;0.93;;;12.40;1.00;;;;;;4954039;28;20042;-80
2022/11/01 05:51:23;;;;;;;5.75;0.80;;;12.40;1.00;;;;;;4961880;28;20046;-80
2022/11/01 05:53:48;;;;;;;3.67;0.63;;;12.10;1.00;;;;;;4956360;28;20015;-80
2022/11/01 05:56:15;;;;;;;4.65;0.70;;;12.20;1.00;;;;;;4981461;28;20097;-80
2022/11/01 05:58:41;;;;;;;5.57;1.08;;;12.20;1.00;;;;;;4977243;28;20547;-80
2022/11/01 06:01:07;;;;;;;6.38;1.00;;;12.00;1.00;;;;;;4980926;28;20110;-80
2022/11/01 06:03:34;;;;;;;6.13;0.90;;;11.90;1.00;;;;;;4975458;28;20026;-80
2022/11/01 06:06:00;;;;;;;3.70;0.60;;;11.90;1.00;;;;;;4972756;28;20022;-80
2022/11/01 06:08:26;;;;;;;7.28;1.05;;;11.90;1.00;;;;;;4960909;28;20046;-80
2022/11/01 06:10:52;;;;;;;5.35;1.10;;;12.00;1.00;;;;;;4972781;28;20030;-80
2022/11/01 06:13:18;;;;;;;6.18;1.17;;;12.20;1.00;;;;;;4986629;28;20433;-80
2022/11/01 06:15:44;;;;;;;9.27;1.48;;;12.40;1.00;;;;;;4982474;28;20505;-80
2022/11/01 06:18:10;;;;;;;8.73;1.55;;;12.30;1.00;;;;;;4985472;28;20109;-80
2022/11/01 06:20:36;;;;;;;8.80;1.55;;;12.30;1.00;;;;;;4972107;28;20437;-80
2022/11/01 06:23:08;;;;;;;8.18;1.27;;;12.40;1.00;;;;;;4984258;28;20019;-80
2022/11/01 06:25:35;;;;;;;7.93;1.45;;;12.40;1.00;;;;;;4967375;28;20047;-80
2022/11/01 06:28:01;;;;;;;7.20;1.33;;;12.50;1.00;;;;;;4971827;28;20023;-80
2022/11/01 06:30:26;;;;;;;5.68;0.73;;;12.50;1.00;;;;;;4981711;28;20437;-80
2022/11/01 06:32:59;;;;;;;9.50;1.80;;;12.80;1.00;;;;;;4984182;28;20470;-81
2022/11/01 06:35:26;;;;;;;6.47;1.10;;;12.80;1.00;;;;;;4973542;28;20022;-80
2022/11/01 06:37:52;;;;;;;13.43;1.35;;;12.70;1.00;;;;;;4971861;28;20050;-80
2022/11/01 06:40:18;;;;;;;10.70;1.67;;;12.80;1.00;;;;;;4984871;28;20062;-80
2022/11/01 06:42:43;;;;;;;5.32;1.02;;;12.90;1.00;;;;;;4971659;28;20095;-80
2022/11/01 06:45:09;;;;;;;4.07;0.70;;;12.80;1.00;;;;;;4971962;28;20031;-81
2022/11/01 06:47:35;;;;;;;7.93;1.20;;;12.90;1.00;;;;;;4972014;28;20023;-81
2022/11/01 06:50:00;;;;;;;7.22;1.13;;;12.80;1.00;;;;;;4971925;28;20038;-81
2022/11/01 06:52:26;;;;;;;7.63;0.95;;;12.80;1.00;;;;;;4983706;28;20114;-80
2022/11/01 06:54:51;;;;;;;6.30;1.10;;;12.90;1.00;;;;;;4952161;28;20031;-80
2022/11/01 06:57:17;;;;;;;6.90;0.70;;;12.80;1.00;;;;;;4957660;28;20063;-81
2022/11/01 06:59:43;;;;;;;6.53;0.90;;;12.90;1.00;;;;;;4955737;28;20042;-80
2022/11/01 07:02:09;;;;;;;7.50;1.45;;;12.90;1.00;;;;;;4977754;28;20018;-80
2022/11/01 07:04:35;;;;;;;5.47;0.90;;;12.60;1.00;;;;;;4971045;28;20023;-80
2022/11/01 07:07:01;;;;;;;12.98;1.17;;;12.70;1.00;;;;;;4976698;28;20034;-80
2022/11/01 07:09:27;;;;;;;12.50;1.30;;;12.90;1.00;;;;;;4966497;28;20028;-80
2022/11/01 07:11:53;;;;;;;7.47;0.70;;;12.90;1.00;;;;;;4954087;28;20026;-80
2022/11/01 07:14:18;;;;;;;8.32;1.83;;;13.00;1.00;;;;;;4955625;28;20023;-80
2022/11/01 07:16:44;;;;;;;6.35;1.02;;;13.10;1.00;;;;;;4955450;28;20359;-80
2022/11/01 07:19:09;;;;;;;6.72;1.25;;;13.00;1.00;;;;;;4969628;28;20022;-81
2022/11/01 07:21:35;;;;;;;3.85;0.98;;;13.00;1.00;;;;;;4976168;28;20537;-80
2022/11/01 07:24:01;;;;;;;7.05;1.30;;;13.10;1.00;;;;;;4984683;28;20042;-80
2022/11/01 07:26:26;;;;;;;9.82;1.42;;;13.10;1.00;;;;;;4984353;28;20018;-80
2022/11/01 07:28:52;;;;;;;7.63;1.40;;;13.00;1.00;;;;;;4975642;28;20097;-80
2022/11/01 07:31:17;;;;;;;8.75;1.42;;;13.20;1.00;;;;;;4983957;28;20018;-81
2022/11/01 07:33:43;;;;;;;6.68;1.23;;;13.20;1.00;;;;;;4971130;28;20054;-81
2022/11/01 07:36:09;;;;;;;9.10;1.30;;;13.20;1.00;;;;;;4962481;28;20361;-81
2022/11/01 07:38:34;;;;;;;6.88;1.42;;;13.20;1.00;;;;;;4984488;28;20026;-81
2022/11/01 07:41:02;;;;;;;8.25;1.52;;;13.20;1.00;;;;;;4984835;28;20474;-80
2022/11/01 07:43:28;;;;;;;11.93;1.95;;;13.30;1.00;;;;;;4983846;28;20056;-80
2022/11/01 07:45:58;;;;;;;12.18;1.48;;;13.20;1.00;;;;;;4972141;28;20019;-80
2022/11/01 07:48:24;;;;;;;8.77;1.52;;;13.40;1.00;;;;;;4974676;28;20026;-80
2022/11/01 07:50:49;;;;;;;10.77;1.42;;;13.20;1.00;;;;;;4980622;28;20014;-80
2022/11/01 07:53:17;;;;;;;13.40;1.88;;;13.30;1.00;;;;;;4993708;28;20022;-80
2022/11/01 07:55:43;;;;;;;10.68;1.63;;;13.20;1.00;;;;;;4986800;28;20559;-81
2022/11/01 07:58:10;;;;;;;13.45;2.25;;;13.20;1.00;;;;;;4975499;28;20030;-81
2022/11/01 08:00:36;;;;;;;10.35;1.77;;;13.20;1.00;;;;;;4961748;28;20393;-81
2022/11/01 08:03:13;;;;;;;8.35;1.50;;;13.30;1.00;;;;;;4972819;28;20030;-81
2022/11/01 08:05:40;;;;;;;15.32;1.67;;;13.30;1.00;;;;;;4974657;28;20042;-81
2022/11/01 08:08:06;;;;;;;14.52;2.22;;;13.30;1.00;;;;;;4986280;28;20544;-81
2022/11/01 08:10:33;;;;;;;9.50;2.22;;;13.40;1.00;;;;;;4959748;28;20483;-81
2022/11/01 08:13:02;;;;;;;11.63;2.33;;;13.40;1.00;;;;;;4955635;28;20042;-81
2022/11/01 08:15:28;;;;;;;10.30;2.13;;;13.40;1.00;;;;;;4960832;28;20019;-80
2022/11/01 08:17:55;;;;;;;11.85;1.88;;;13.40;1.00;;;;;;4964707;28;20066;-81
2022/11/01 08:20:21;;;;;;;12.05;2.03;;;13.40;1.00;;;;;;4957950;28;20063;-80
2022/11/01 08:22:46;;;;;;;24.27;2.47;;;13.30;1.00;;;;;;4957160;28;20023;-80
2022/11/01 08:25:12;;;;;;;17.05;2.75;;;13.40;1.00;;;;;;4955162;28;20077;-80
2022/11/01 08:27:38;;;;;;;13.45;1.83;;;13.50;1.00;;;;;;4959051;28;20584;-80
2022/11/01 08:30:04;;;;;;;17.23;2.78;;;13.60;1.00;;;;;;4959384;28;20058;-81
2022/11/01 08:32:29;;;;;;;11.00;2.20;;;14.40;1.00;;;;;;4959386;28;20098;-81
2022/11/01 08:34:55;;;;;;;13.05;2.20;;;14.40;1.00;;;;;;4954567;28;20170;-81
2022/11/01 08:37:20;;;;;;;15.35;2.15;;;14.20;1.00;;;;;;4966478;28;20023;-81
2022/11/01 08:39:46;;;;;;;15.95;3.00;;;15.20;1.00;;;;;;4960325;28;20433;-80
2022/11/01 08:42:12;;;;;;;14.48;2.08;;;14.70;1.00;;;;;;4959038;28;20020;-81
2022/11/01 08:44:37;;;;;;;14.13;2.03;;;14.50;1.00;;;;;;4958284;28;20224;-81
2022/11/01 08:47:03;;;;;;;14.90;1.90;;;14.50;1.00;;;;;;4959449;28;20177;-80
2022/11/01 08:49:29;;;;;;;17.17;1.88;;;14.60;1.00;;;;;;4958086;28;20459;-81
2022/11/01 08:51:55;;;;;;;16.65;2.95;;;14.60;1.00;;;;;;4962016;28;20035;-80
2022/11/01 08:54:20;;;;;;;14.70;1.80;;;14.70;1.00;;;;;;4952847;28;20147;-80
2022/11/01 08:56:46;;;;;;;13.05;2.05;;;15.00;1.00;;;;;;4963684;28;20106;-79
2022/11/01 08:59:11;;;;;;;15.23;2.17;;;15.30;1.00;;;;;;4957339;28;20019;-79
2022/11/01 09:01:37;;;;;;;15.55;2.63;;;15.50;1.00;;;;;;4961320;28;20027;-79
2022/11/01 09:04:04;;;;;;;14.68;2.78;;;15.70;1.00;;;;;;4962869;28;20038;-79
2022/11/01 09:06:30;;;;;;;15.68;2.83;;;15.70;1.00;;;;;;4979798;28;20014;-80
2022/11/01 09:08:55;;;;;;;12.48;2.00;;;15.90;1.00;;;;;;4962643;28;20057;-79
2022/11/01 09:11:23;;;;;;;19.05;2.53;;;16.20;1.00;;;;;;4964418;28;20031;-79
2022/11/01 09:13:50;;;;;;;19.25;2.97;;;16.30;1.00;;;;;;4953886;28;20034;-80
2022/11/01 09:16:16;;;;;;;17.33;2.70;;;16.50;1.00;;;;;;4969085;28;20102;-80
2022/11/01 09:18:42;;;;;;;13.63;2.35;;;16.30;1.00;;;;;;4982286;28;20109;-79
2022/11/01 09:21:08;;;;;;;15.73;2.55;;;15.90;1.00;;;;;;4989513;28;20097;-80
2022/11/01 09:23:35;;;;;;;11.95;2.70;;;15.80;1.00;;;;;;4980867;28;20046;-79
2022/11/01 09:26:06;;;;;;;16.80;2.35;;;15.90;1.00;;;;;;4990529;28;20069;-79
2022/11/01 09:28:32;;;;;;;12.38;1.77;;;15.90;1.00;;;;;;4983288;28;20122;-80
2022/11/01 09:31:11;;;;;;;13.00;2.10;;;15.60;1.00;;;;;;4972420;28;20517;-80
2022/11/01 09:33:37;;;;;;;14.00;2.25;;;15.40;1.00;;;;;;4962117;28;20055;-80
2022/11/01 09:36:03;;;;;;;13.88;2.30;;;15.60;1.00;;;;;;4972056;28;20453;-79
2022/11/01 09:38:28;;;;;;;10.52;2.47;;;15.60;1.00;;;;;;4962586;28;20028;-79
2022/11/01 09:40:59;;;;;;;13.35;2.40;;;15.40;1.00;;;;;;4976694;28;20030;-79
2022/11/01 09:43:27;;;;;;;;;;;15.30;1.00;;;;;;4968870;28;20027;-79
2022/11/01 09:45:56;;;;;;;13.02;2.75;;;15.30;1.00;;;;;;4984960;28;19905;-79
2022/11/01 09:48:24;;;;;;;13.35;2.10;;;15.40;1.00;;;;;;4959553;28;20122;-79
2022/11/01 09:50:49;;;;;;;10.50;2.15;;;15.60;1.00;;;;;;4958458;28;20423;-80
2022/11/01 09:53:20;;;;;;;14.20;2.67;;;16.10;1.00;;;;;;4966232;28;20050;-80
2022/11/01 09:56:08;;;;;;;13.55;2.40;;;16.50;1.00;;;;;;4984753;28;20023;-78
2022/11/01 09:58:37;;;;;;;12.48;1.90;;;16.90;1.00;;;;;;4964406;28;20027;-79
2022/11/01 10:01:18;;;;;;;15.20;1.95;;;16.90;1.00;;;;;;4977014;28;20030;-79
2022/11/01 10:04:05;;;;;;;12.43;2.55;;;16.70;1.00;;;;;;4974137;28;20026;-78
2022/11/01 10:06:40;;;;;;;11.38;2.13;;;17.00;1.00;;;;;;4964457;28;20456;-78
2022/11/01 10:09:50;;;;;;;20.20;2.53;;;17.30;1.00;;;;;;4976911;28;20031;-79
2022/11/01 10:12:19;;;;;;;10.60;1.90;;;16.70;1.00;;;;;;4983328;28;20034;-78
2022/11/01 10:14:54;;;;;;;11.60;1.90;;;16.90;1.00;;;;;;4984615;28;20479;-78
2022/11/01 10:17:42;;;;;;;13.77;1.92;;;17.20;1.00;;;;;;4971788;28;20034;-78
2022/11/01 10:20:12;;;;;;;9.50;1.75;;;17.10;1.00;;;;;;4982671;28;20037;-78
2022/11/01 10:22:40;;;;;;;11.70;2.07;;;17.10;1.00;;;;;;4967405;28;20552;-78
2022/11/01 10:25:19;;;;;;;16.88;2.15;;;17.10;1.00;;;;;;4952896;28;20725;-78
2022/11/01 10:27:51;;;;;;;14.88;2.15;;;17.00;1.00;;;;;;4967092;28;20030;-79
2022/11/01 10:30:17;;;;;;;10.25;2.00;;;16.90;1.00;;;;;;4961822;28;20378;-78
2022/11/01 10:33:10;;;;;;;12.98;2.15;;;16.80;1.00;;;;;;4951562;28;20089;-79
2022/11/01 10:35:50;;;;;;;14.90;2.45;;;16.60;1.00;;;;;;4956214;28;20042;-79
2022/11/01 10:38:16;;;;;;;;;;;16.90;1.00;;;;;;4953707;28;20026;-79
2022/11/01 10:40:48;;;;;;;12.52;1.83;;;17.00;1.00;;;;;;4959215;28;19914;-79
2022/11/01 10:43:17;;;;;;;14.05;2.00;;;17.10;1.00;;;;;;4964286;28;20082;-79
2022/11/01 10:45:44;;;;;;;12.32;2.35;;;17.10;1.00;;;;;;4975172;28;20102;-80
2022/11/01 10:48:22;;;;;;;13.27;2.70;;;17.00;1.00;;;;;;4952211;28;20511;-80
2022/11/01 10:50:49;;;;;;;9.43;2.13;;;16.80;1.00;;;;;;4960519;28;20027;-79
2022/11/01 10:53:19;;;;;;;10.20;1.80;;;16.70;1.00;;;;;;4962813;28;20114;-80
2022/11/01 10:55:51;;;;;;;18.77;2.20;;;16.40;1.00;;;;;;4958734;28;20050;-79
2022/11/01 10:58:32;;;;;;;10.68;2.03;;;16.50;1.00;;;;;;4961412;28;20027;-79
2022/11/01 11:01:04;;;;;;;18.27;1.85;;;16.70;1.00;;;;;;4956937;28;20023;-79
2022/11/01 11:03:30;;;;;;;12.23;1.85;;;16.80;1.00;;;;;;4966953;28;20031;-80
2022/11/01 11:06:00;;;;;;;12.27;2.33;;;16.70;1.00;;;;;;4974328;28;20046;-79
2022/11/01 11:08:26;;;;;;;8.63;1.90;;;16.50;1.00;;;;;;4961380;28;20035;-79
2022/11/01 11:10:52;;;;;;;12.27;1.95;;;16.50;1.00;;;;;;4958039;28;20041;-80
2022/11/01 11:13:21;;;;;;;13.93;2.65;;;16.50;1.00;;;;;;4964043;28;20015;-80
2022/11/01 11:15:59;;;;;;;10.10;1.80;;;16.60;1.00;;;;;;4960379;28;20110;-80
2022/11/01 11:18:32;;;;;;;10.55;1.45;;;16.50;1.00;;;;;;4957091;28;20078;-79
2022/11/01 11:21:01;;;;;;;9.50;1.60;;;16.40;1.00;;;;;;4959814;28;20023;-79
2022/11/01 11:23:29;;;;;;;13.63;2.13;;;16.90;1.00;;;;;;4967809;28;20204;-80
2022/11/01 11:26:07;;;;;;;8.60;1.88;;;17.20;1.00;;;;;;4967818;28;20516;-80
2022/11/01 11:28:41;;;;;;;11.38;1.95;;;17.30;1.00;;;;;;4959075;28;20027;-80
2022/11/01 11:31:17;;;;;;;11.00;2.17;;;17.10;1.00;;;;;;4959151;28;20019;-80
2022/11/01 11:34:11;;;;;;;14.40;1.88;;;17.40;1.00;;;;;;4959110;28;20047;-80
2022/11/01 11:36:42;;;;;;;11.07;1.92;;;17.50;1.00;;;;;;4978899;28;20084;-80
2022/11/01 11:39:22;;;;;;;9.55;1.75;;;17.20;1.00;;;;;;4979106;28;20036;-80
2022/11/01 11:41:47;;;;;;;10.13;1.95;;;16.90;1.00;;;;;;4994067;28;20073;-80
2022/11/01 11:44:34;;;;;;;10.88;1.63;;;16.90;1.00;;;;;;4981402;28;20062;-80
2022/11/01 11:47:01;;;;;;;8.35;1.65;;;17.10;1.00;;;;;;4979043;28;20117;-79
2022/11/01 11:49:28;;;;;;;13.52;1.92;;;17.40;1.00;;;;;;4972802;28;20023;-79
2022/11/01 11:51:54;;;;;;;9.80;1.63;;;17.40;1.00;;;;;;4958638;28;20074;-80
2022/11/01 11:54:20;;;;;;;15.60;1.55;;;17.30;1.00;;;;;;4957852;28;20030;-80
2022/11/01 11:56:49;;;;;;;10.52;1.73;;;17.30;1.00;;;;;;4967911;28;20023;-80
2022/11/01 11:59:28;;;;;;;10.30;1.45;;;17.40;1.00;;;;;;4958102;28;20038;-80
2022/11/01 12:02:00;;;;;;;8.00;1.67;;;17.40;1.00;;;;;;4976922;28;20014;-81
2022/11/01 12:04:44;;;;;;;10.35;2.00;;;17.10;1.00;;;;;;4957503;28;20102;-81
2022/11/01 12:07:36;;;;;;;11.38;2.03;;;17.10;1.00;;;;;;4961135;28;20483;-80
2022/11/01 12:10:05;;;;;;;14.07;2.28;;;17.30;1.00;;;;;;4974249;28;20044;-80
2022/11/01 12:12:33;;;;;;;12.63;1.63;;;17.20;1.00;;;;;;4974218;28;20117;-81
2022/11/01 12:15:01;;;;;;;10.68;1.73;;;17.10;1.00;;;;;;4991691;28;20053;-81
2022/11/01 12:17:54;;;;;;;10.05;1.52;;;17.10;1.00;;;;;;4992820;28;20093;-81
2022/11/01 12:20:24;;;;;;;10.40;2.03;;;16.90;1.00;;;;;;4976384;28;20409;-80
2022/11/01 12:23:09;;;;;;;11.43;2.03;;;16.90;1.00;;;;;;4971304;28;20486;-80
2022/11/01 12:25:35;;;;;;;7.03;1.70;;;17.20;1.00;;;;;;4970794;28;20031;-81
2022/11/01 12:28:22;;;;;;;12.60;2.28;;;17.80;1.00;;;;;;4969036;28;20385;-80
2022/11/01 12:30:51;;;;;;;13.70;1.90;;;17.50;1.00;;;;;;4950035;28;20034;-81
2022/11/01 12:33:32;;;;;;;8.57;1.55;;;17.50;1.00;;;;;;4982760;28;20034;-81
2022/11/01 12:35:58;;;;;;;8.88;1.80;;;17.40;99.90;;;;;;4974504;28;20119;-81
2022/11/01 12:38:30;;;;;;;10.77;2.00;;;17.30;1.00;;;;;;4973732;28;20027;-81
2022/11/01 12:40:57;;;;;;;11.68;2.08;;;17.10;1.00;;;;;;4990569;28;20651;-81
2022/11/01 12:43:32;;;;;;;8.63;1.33;;;17.20;1.00;;;;;;4981333;28;20023;-81
2022/11/01 12:46:14;;;;;;;10.98;1.55;;;17.10;1.00;;;;;;4988533;28;20046;-81
2022/11/01 12:48:45;;;;;;;9.65;1.42;;;17.10;1.00;;;;;;4969227;28;20441;-81
2022/11/01 12:51:25;;;;;;;9.63;1.75;;;17.00;1.00;;;;;;4968051;28;20250;-81
2022/11/01 12:54:17;;;;;;;6.65;1.73;;;17.10;1.00;;;;;;4979712;28;20110;-81
2022/11/01 12:56:43;;;;;;;5.55;1.20;;;17.10;1.00;;;;;;4964441;28;20046;-81
2022/11/01 12:59:13;;;;;;;11.00;1.48;;;17.10;1.00;;;;;;4970529;28;20023;-81
2022/11/01 13:01:54;;;;;;;7.57;1.73;;;17.00;1.00;;;;;;4959456;28;20027;-81
2022/11/01 13:04:47;;;;;;;10.43;1.70;;;16.90;99.90;;;;;;4954680;28;20034;-81
2022/11/01 13:07:43;;;;;;;7.13;1.50;;;17.00;1.00;;;;;;4968264;28;20035;-81
2022/11/01 13:10:34;;;;;;;11.45;1.90;;;17.00;99.90;;;;;;4976890;28;20534;-81
2022/11/01 13:13:11;;;;;;;6.03;1.45;;;17.00;1.00;;;;;;4969776;28;20033;-81
2022/11/01 13:16:11;;;;;;;6.60;1.30;;;17.00;1.00;;;;;;4977153;28;20030;-81